Česky Dansk Deutsch English Español Suomi Français Magyar Italiano Nederlands norsk Polski Português svenska Türkçe

 

Het Weer

Tallinn (Estland)

23:50, 20 augustus 2016 (GMT)

NWNNE
WE
SWSSE
Home            
Tallinn Helsinki-Malmi Helsinki-Vantaa Parnu Kardla Tartu/Ulenurme Kuressaare Turku Utti Tampere / Pirkkala Lappeenranta Halli Riga Riga International Airport Pori Mariehamn / Aland Island Mikkeli Ventspils St. Peterburg Jyvaskyla Varkaus Ahtari Savonlinna

Om een weerknop op uw website of weblog te plaatsen, copieer onderstaande code en plak die in uw pagina. In het eerste vakje staat HTML-code, in het tweede vakje UBB-code.


Add to Google

Details

Wind speed:1 bf, 3 kn, 1.5 m/s, 3.5 miles/h, 5.6 km/h
Wind direction:ESE, 110°
Visibility:Greater than 10000 m, 10 km, 32800 ft, 6.2 miles
Clouds:Ein wenig bewölkt at 4500 ft, 1372 m
Temperature:13°C, 55°F
Dew-point:12°C, 54°F
Atmospheric pressure:1017 hPa, 762.8 mmHg, 30.03 inHg, 1.004 atm
Relative humidity:93.6 %
METAR:EETN 202350Z 11003KT 9999 FEW045 13/12 Q1017

Snelkoppelingen

Actuele weersinformatie van de hele wereld. Voeg locaties toe met het plus (+) symbool. Deze snelkoppelingen kunnen worden toegevoegd aan Google.

Lid van de Technetium groep

website free tracking
StatCounter NetStat W3C Validator

27-10-2020 01:15:51
astro.technetium.be money.technetium.be phote.technetium.be tafeltennistafel.technetium.be www.ligfiets.net